Time;durP1;ratioP1;P1;durP2;ratioP2;P2;SDS_P1;SDS_P2;PMS_P1;PMS_P2;Temp;Humidity;BMP_temperature;BMP_pressure;BME280_temperature;BME280_humidity;BME280_pressure;Samples;Min_cycle;Max_cycle;Signal;HPM_P1;HPM_P2
2023/05/26 00:02:51;;;;;;;23.42;15.00;;;;;;;17.36;81.81;100559.34;1757359;80;21208;-57
2023/05/26 00:05:57;;;;;;;24.43;17.70;;;;;;;17.34;81.68;100553.72;1791774;79;21339;-57
2023/05/26 00:09:03;;;;;;;26.48;17.75;;;;;;;17.32;81.60;100558.61;1791632;79;21848;-57
2023/05/26 00:12:10;;;;;;;27.37;17.67;;;;;;;17.31;81.67;100558.30;1791668;79;21372;-58
2023/05/26 00:15:18;;;;;;;22.15;16.48;;;;;;;17.31;81.74;100556.92;1791606;80;21935;-57
2023/05/26 00:18:27;;;;;;;22.58;14.90;;;;;;;17.31;81.84;100559.69;1791723;80;21328;-57
2023/05/26 00:21:35;;;;;;;23.77;16.75;;;;;;;17.32;81.94;100556.70;1791598;79;21891;-59
2023/05/26 00:24:42;;;;;;;22.73;16.37;;;;;;;17.33;82.00;100560.33;1791635;79;21348;-57
2023/05/26 00:27:48;;;;;;;23.62;16.40;;;;;;;17.34;82.10;100559.25;1791272;78;21363;-58
2023/05/26 00:30:54;;;;;;;23.32;15.93;;;;;;;17.35;82.16;100556.80;1799270;79;21339;-57
2023/05/26 00:34:01;;;;;;;24.40;16.70;;;;;;;17.34;82.13;100555.10;1799483;79;21323;-57
2023/05/26 00:37:06;;;;;;;23.80;15.95;;;;;;;17.34;82.16;100555.97;1799216;79;21421;-57
2023/05/26 00:40:14;;;;;;;23.75;15.70;;;;;;;17.35;82.18;100562.33;1799196;79;21840;-56
2023/05/26 00:43:20;;;;;;;21.77;16.23;;;;;;;17.33;82.15;100556.19;1799547;79;21378;-57
2023/05/26 00:46:28;;;;;;;22.35;16.97;;;;;;;17.32;82.11;100564.14;1799205;79;21351;-57
2023/05/26 00:49:34;;;;;;;22.52;16.00;;;;;;;17.31;82.17;100555.54;1799561;79;21339;-58
2023/05/26 00:52:35;;;;;;;18.45;14.60;;;;;;;17.32;82.26;100555.32;1799645;79;21376;-58
2023/05/26 00:55:28;;;;;;;22.17;15.13;;;;;;;17.32;82.25;100557.23;1799493;79;21327;-57
2023/05/26 00:58:34;;;;;;;23.25;14.83;;;;;;;17.30;82.32;100556.61;1799192;79;21342;-57
2023/05/26 01:01:41;;;;;;;16.65;13.72;;;;;;;17.30;82.42;100556.06;1799577;79;21327;-57
2023/05/26 01:04:48;;;;;;;17.55;12.73;;;;;;;17.29;82.41;100549.36;1799325;79;21370;-57
2023/05/26 01:07:56;;;;;;;16.27;13.05;;;;;;;17.27;82.39;100545.95;1799287;79;21429;-56
2023/05/26 01:11:08;;;;;;;16.00;12.33;;;;;;;17.27;82.58;100555.63;1799616;79;21362;-57
2023/05/26 01:14:56;;;;;;;16.90;12.43;;;;;;;17.28;82.68;100558.73;1799228;79;21339;-57
2023/05/26 01:18:13;;;;;;;18.42;12.47;;;;;;;17.25;82.62;100555.02;1799785;79;21348;-56
2023/05/26 01:21:19;;;;;;;17.25;12.47;;;;;;;17.23;82.62;100558.00;1799267;79;21402;-55
2023/05/26 01:24:37;;;;;;;14.18;11.83;;;;;;;17.22;82.69;100555.45;1799316;79;21338;-56
2023/05/26 01:28:21;;;;;;;15.95;12.35;;;;;;;17.23;82.85;100558.00;1799270;79;21335;-57
2023/05/26 01:31:27;;;;;;;14.73;11.48;;;;;;;17.25;83.03;100557.23;1760165;80;21296;-57
2023/05/26 01:34:33;;;;;;;15.45;11.88;;;;;;;17.26;83.12;100556.71;1773158;79;21422;-58
2023/05/26 01:37:41;;;;;;;14.45;11.48;;;;;;;17.27;83.08;100557.02;1773661;79;21386;-57
2023/05/26 01:40:50;;;;;;;15.50;11.53;;;;;;;17.26;83.11;100559.48;1773181;79;21407;-57
2023/05/26 01:44:19;;;;;;;20.92;11.53;;;;;;;17.27;83.22;100563.41;1773435;79;21319;-56
2023/05/26 01:47:25;;;;;;;16.07;10.98;;;;;;;17.28;83.23;100567.04;1773155;79;21336;-57
2023/05/26 01:50:33;;;;;;;15.35;11.08;;;;;;;17.27;83.28;100563.41;1772978;79;21899;-57
2023/05/26 01:53:40;;;;;;;16.25;11.30;;;;;;;17.26;83.21;100560.86;1773357;79;21339;-57
2023/05/26 01:56:47;;;;;;;14.40;10.98;;;;;;;17.25;83.27;100556.41;1773023;80;21329;-57
2023/05/26 01:59:54;;;;;;;15.23;10.85;;;;;;;17.27;83.43;100561.16;1772991;80;21800;-59
2023/05/26 02:03:05;;;;;;;14.33;10.63;;;;;;;17.25;83.41;100557.23;1772930;80;21323;-56
2023/05/26 02:06:14;;;;;;;12.65;10.53;;;;;;;17.22;83.28;100549.92;1773249;79;21437;-56
2023/05/26 02:09:21;;;;;;;17.85;11.65;;;;;;;17.17;83.20;100549.70;1773061;80;21327;-56
2023/05/26 02:12:26;;;;;;;13.55;10.63;;;;;;;17.13;83.19;100552.05;1773870;80;21414;-57
2023/05/26 02:15:32;;;;;;;13.95;10.70;;;;;;;17.11;83.26;100556.10;1772963;79;21974;-58
2023/05/26 02:18:38;;;;;;;14.45;10.88;;;;;;;17.11;83.39;100555.55;1773410;79;21355;-56
2023/05/26 02:21:45;;;;;;;15.58;10.63;;;;;;;17.13;83.39;100555.33;1772952;79;21351;-57
2023/05/26 02:24:50;;;;;;;15.75;10.75;;;;;;;17.13;83.50;100553.95;1772873;80;21339;-59
2023/05/26 02:27:59;;;;;;;11.73;9.65;;;;;;;17.16;83.49;100559.05;1773307;80;21378;-58
2023/05/26 02:31:05;;;;;;;12.43;10.03;;;;;;;17.14;83.47;100556.50;1781232;79;21383;-59
2023/05/26 02:34:11;;;;;;;17.02;9.63;;;;;;;17.16;83.56;100559.91;1804528;79;21359;-58
2023/05/26 02:37:18;;;;;;;12.43;10.05;;;;;;;17.21;83.74;100559.27;1804502;79;21363;-55
2023/05/26 02:40:23;;;;;;;13.05;9.78;;;;;;;17.23;83.78;100559.39;1804515;79;21413;-58
2023/05/26 02:43:28;;;;;;;13.70;9.70;;;;;;;17.24;83.71;100554.16;1804508;79;21374;-59
2023/05/26 02:46:36;;;;;;;13.30;10.50;;;;;;;17.25;83.69;100556.41;1804509;79;21327;-59
2023/05/26 02:49:42;;;;;;;11.97;9.73;;;;;;;17.29;83.81;100553.52;1804456;79;21859;-58
2023/05/26 02:52:49;;;;;;;12.90;9.25;;;;;;;17.35;83.88;100556.80;1804506;79;21816;-57
2023/05/26 02:55:56;;;;;;;14.55;9.30;;;;;;;17.40;83.95;100552.85;1804473;79;21386;-55
2023/05/26 02:59:01;;;;;;;12.23;9.33;;;;;;;17.47;84.11;100555.12;1787837;79;21393;-56
2023/05/26 03:02:09;;;;;;;13.45;8.90;;;;;;;17.55;84.24;100552.95;1804497;79;21824;-56
2023/05/26 03:05:16;;;;;;;12.03;9.23;;;;;;;17.65;84.23;100554.74;1787808;79;21340;-55
2023/05/26 03:08:22;;;;;;;13.00;8.33;;;;;;;17.72;84.25;100558.88;1804457;79;21891;-56
2023/05/26 03:11:28;;;;;;;11.05;9.08;;;;;;;17.80;84.19;100561.41;1804572;79;21943;-56
2023/05/26 03:14:35;;;;;;;10.53;8.88;;;;;;;17.84;84.09;100566.81;1804536;79;21910;-56
2023/05/26 03:17:40;;;;;;;10.35;8.50;;;;;;;17.87;83.99;100557.55;1804678;79;21904;-55
2023/05/26 03:20:48;;;;;;;12.43;8.35;;;;;;;17.93;83.97;100562.76;1804532;79;21859;-55
2023/05/26 03:23:56;;;;;;;12.00;8.50;;;;;;;17.98;83.96;100560.19;1804613;79;21807;-55
2023/05/26 03:27:03;;;;;;;11.60;8.98;;;;;;;18.04;84.01;100563.98;1804533;79;21420;-55
2023/05/26 03:30:11;;;;;;;12.00;8.20;;;;;;;18.12;84.14;100563.73;1804548;79;21347;-55
2023/05/26 03:33:17;;;;;;;10.75;7.90;;;;;;;18.22;84.21;100569.11;1801997;79;21347;-56
2023/05/26 03:36:24;;;;;;;10.68;7.95;;;;;;;18.29;84.18;100571.33;1804581;79;21347;-57
2023/05/26 03:39:31;;;;;;;11.03;7.58;;;;;;;18.35;84.07;100568.19;1804550;79;21370;-54
2023/05/26 03:42:37;;;;;;;10.80;8.13;;;;;;;18.40;84.05;100575.34;1804659;79;21369;-55
2023/05/26 03:45:43;;;;;;;10.13;7.47;;;;;;;18.49;84.19;100572.09;1787862;79;21342;-56
2023/05/26 03:48:50;;;;;;;11.00;7.60;;;;;;;18.60;84.30;100575.54;1804701;79;21326;-55
2023/05/26 03:51:56;;;;;;;8.35;7.12;;;;;;;18.70;84.34;100573.66;1804602;79;21852;-55
2023/05/26 03:55:01;;;;;;;10.53;6.97;;;;;;;18.74;84.22;100572.16;1807835;79;21358;-56
2023/05/26 03:58:09;;;;;;;8.73;6.25;;;;;;;18.79;84.11;100578.72;1804516;79;21350;-56
2023/05/26 04:01:19;;;;;;;9.95;7.50;;;;;;;18.84;84.06;100577.51;1804671;79;21367;-54
2023/05/26 04:04:24;;;;;;;11.50;7.30;;;;;;;18.91;84.12;100578.85;1804559;79;21379;-55
2023/05/26 04:07:30;;;;;;;11.12;7.42;;;;;;;19.01;84.26;100572.27;1804587;79;21377;-54
2023/05/26 04:10:35;;;;;;;12.23;7.40;;;;;;;19.09;84.31;100576.98;1804537;79;21887;-55
2023/05/26 04:13:44;;;;;;;8.25;7.10;;;;;;;19.17;84.32;100577.27;1804604;79;21382;-55
2023/05/26 04:16:50;;;;;;;9.85;7.67;;;;;;;19.22;84.28;100580.18;1804611;79;21323;-55
2023/05/26 04:19:50;;;;;;;7.35;6.55;;;;;;;19.26;84.30;100574.50;1804571;79;21319;-55
2023/05/26 04:22:57;;;;;;;13.38;7.33;;;;;;;19.32;84.25;100587.50;1804593;79;21351;-56
2023/05/26 04:26:03;;;;;;;9.28;7.33;;;;;;;19.36;84.20;100585.13;1804616;79;21347;-55
2023/05/26 04:29:15;;;;;;;10.08;7.42;;;;;;;19.44;84.23;100584.84;1804655;79;21854;-55
2023/05/26 04:32:38;;;;;;;9.13;7.58;;;;;;;19.53;84.33;100580.68;1804122;78;21323;-56
2023/05/26 04:35:47;;;;;;;8.23;7.20;;;;;;;19.63;84.43;100579.63;1800723;79;21331;-58
2023/05/26 04:38:54;;;;;;;9.38;6.87;;;;;;;19.74;84.45;100576.91;1804653;79;21393;-57
2023/05/26 04:42:02;;;;;;;8.03;6.75;;;;;;;19.84;84.47;100577.77;1788232;79;22088;-56
2023/05/26 04:45:08;;;;;;;10.95;6.17;;;;;;;19.96;84.57;100578.18;1804292;79;21362;-57
2023/05/26 04:48:16;;;;;;;9.98;7.08;;;;;;;20.09;84.61;100575.78;1804319;79;21323;-57
2023/05/26 04:51:22;;;;;;;9.55;6.55;;;;;;;20.21;84.66;100580.35;1804219;79;21915;-56
2023/05/26 04:54:28;;;;;;;8.68;6.40;;;;;;;20.32;84.69;100576.78;1804405;79;21342;-56
2023/05/26 04:57:35;;;;;;;9.28;6.62;;;;;;;20.44;84.64;100575.42;1803605;79;21358;-57
2023/05/26 05:00:42;;;;;;;10.30;6.75;;;;;;;20.55;84.55;100571.30;1788646;77;21291;-55
2023/05/26 05:03:51;;;;;;;9.10;5.45;;;;;;;20.65;84.44;100575.77;1778147;79;21691;-60
2023/05/26 05:06:56;;;;;;;10.43;5.92;;;;;;;20.75;84.45;100576.59;1737321;81;21243;-60
2023/05/26 05:10:03;;;;;;;9.65;6.22;;;;;;;20.88;84.52;100572.22;1804458;77;21199;-64
2023/05/26 05:13:10;;;;;;;8.05;6.05;;;;;;;21.00;84.47;100568.94;1793192;78;21389;-65
2023/05/26 05:16:17;;;;;;;9.78;6.20;;;;;;;21.14;84.39;100571.80;1786551;78;21463;-59
2023/05/26 05:19:24;;;;;;;9.33;6.25;;;;;;;21.25;84.29;100570.97;1791937;78;21201;-64
2023/05/26 05:22:32;;;;;;;10.58;7.00;;;;;;;21.32;84.26;100575.03;1778754;79;21322;-62
2023/05/26 05:25:45;;;;;;;12.18;8.85;;;;;;;21.47;84.22;100574.86;1797002;78;21251;-59
2023/05/26 05:28:53;;;;;;;8.75;6.45;;;;;;;21.61;84.25;100574.91;1791133;79;21463;-64
2023/05/26 05:32:05;;;;;;;9.68;7.17;;;;;;;21.74;84.13;100575.23;1753832;80;21193;-64
2023/05/26 05:35:12;;;;;;;8.80;6.22;;;;;;;21.81;83.93;100572.64;1791347;79;21209;-62
2023/05/26 05:38:18;;;;;;;11.05;6.80;;;;;;;21.86;83.86;100578.88;1789159;79;21367;-66
2023/05/26 05:41:24;;;;;;;7.92;6.50;;;;;;;21.92;83.75;100574.56;1781465;79;21347;-60
2023/05/26 05:44:32;;;;;;;8.88;7.10;;;;;;;21.99;83.64;100573.87;1785598;79;21331;-62
2023/05/26 05:47:39;;;;;;;11.03;7.20;;;;;;;22.02;83.44;100580.34;1790690;80;21366;-64
2023/05/26 05:50:54;;;;;;;11.10;6.65;;;;;;;22.08;83.39;100580.78;1788785;80;21391;-63
2023/05/26 05:54:01;;;;;;;9.15;7.05;;;;;;;22.10;83.24;100580.53;1791181;80;21375;-61
2023/05/26 05:57:10;;;;;;;8.35;6.67;;;;;;;22.16;83.42;100579.01;1792271;80;21351;-59
2023/05/26 06:00:17;;;;;;;11.73;6.60;;;;;;;22.19;83.24;100581.84;1781731;79;21382;-57
2023/05/26 06:03:25;;;;;;;9.65;7.30;;;;;;;22.25;83.26;100583.63;1785182;79;21868;-62
2023/05/26 06:06:33;;;;;;;12.37;7.67;;;;;;;22.26;83.05;100584.49;1789384;78;21397;-61
2023/05/26 06:09:40;;;;;;;9.33;6.50;;;;;;;22.25;82.95;100585.03;1789059;79;21363;-62
2023/05/26 06:12:46;;;;;;;14.90;7.22;;;;;;;22.31;82.98;100587.39;1763735;80;21216;-62
2023/05/26 06:15:54;;;;;;;13.53;7.17;;;;;;;22.37;82.99;100592.83;1782411;78;21382;-58
2023/05/26 06:19:00;;;;;;;8.30;6.30;;;;;;;22.41;82.92;100589.83;1774739;79;21355;-58
2023/05/26 06:22:12;;;;;;;8.53;6.83;;;;;;;22.44;82.92;100598.27;1772917;80;21843;-58
2023/05/26 06:25:23;;;;;;;12.20;6.15;;;;;;;22.50;82.88;100588.91;1772431;80;21366;-56
2023/05/26 06:28:36;;;;;;;7.58;5.42;;;;;;;22.61;82.98;100593.05;1778759;79;21345;-57
2023/05/26 06:31:57;;;;;;;6.05;4.78;;;;;;;22.76;82.90;100589.72;1776616;79;21378;-56
2023/05/26 06:35:04;;;;;;;8.33;5.00;;;;;;;22.83;82.63;100593.22;1789842;79;21379;-56
2023/05/26 06:38:11;;;;;;;7.35;4.75;;;;;;;22.89;82.42;100590.27;1784651;79;21369;-56
2023/05/26 06:41:19;;;;;;;9.55;4.67;;;;;;;23.02;82.33;100590.50;1798376;79;21414;-57
2023/05/26 06:44:26;;;;;;;9.15;4.97;;;;;;;23.08;82.16;100588.95;1784847;78;21848;-57
2023/05/26 06:47:34;;;;;;;9.33;4.28;;;;;;;23.14;81.97;100589.87;1786666;79;21396;-55
2023/05/26 06:50:39;;;;;;;6.00;4.58;;;;;;;23.19;81.82;100590.81;1797062;78;21908;-56
2023/05/26 06:53:46;;;;;;;12.85;4.20;;;;;;;23.21;81.69;100589.16;1808209;77;21736;-56
2023/05/26 06:56:52;;;;;;;6.60;3.95;;;;;;;23.24;81.57;100583.92;1787188;77;21218;-58
2023/05/26 06:59:58;;;;;;;8.53;4.72;;;;;;;23.23;81.44;100587.80;1797480;78;21311;-58
2023/05/26 07:03:05;;;;;;;11.00;3.80;;;;;;;23.22;81.26;100587.52;1799590;79;21242;-57
2023/05/26 07:06:13;;;;;;;4.55;3.22;;;;;;;23.26;81.34;100586.50;1806311;79;21385;-56
2023/05/26 07:09:21;;;;;;;5.42;3.75;;;;;;;23.37;81.33;100582.20;1795495;79;21334;-55
2023/05/26 07:12:26;;;;;;;9.05;4.53;;;;;;;23.44;81.35;100573.65;1786597;78;21247;-57
2023/05/26 07:15:36;;;;;;;7.72;4.30;;;;;;;23.36;80.97;100572.67;1794503;78;21869;-58
2023/05/26 07:18:41;;;;;;;8.88;4.20;;;;;;;23.30;80.77;100577.89;1800505;79;21753;-58
2023/05/26 07:21:47;;;;;;;6.75;4.00;;;;;;;23.18;80.54;100584.09;1801998;78;21621;-57
2023/05/26 07:24:56;;;;;;;9.25;4.55;;;;;;;23.11;80.48;100576.41;1761867;80;21753;-59
2023/05/26 07:28:03;;;;;;;6.35;3.72;;;;;;;23.08;80.57;100573.58;1802781;79;21338;-58
2023/05/26 07:31:09;;;;;;;8.03;4.17;;;;;;;23.10;80.61;100583.11;1801213;79;21208;-57
2023/05/26 07:34:17;;;;;;;6.65;4.05;;;;;;;23.02;80.37;100584.38;1788465;78;21216;-58
2023/05/26 07:37:24;;;;;;;6.47;3.87;;;;;;;22.90;80.22;100585.52;1798391;78;21377;-58
2023/05/26 07:40:34;;;;;;;7.47;3.40;;;;;;;22.91;80.48;100590.02;1802388;78;21410;-57
2023/05/26 07:43:40;;;;;;;7.80;3.60;;;;;;;22.98;80.54;100597.67;1769021;80;21197;-58
2023/05/26 07:46:47;;;;;;;10.05;3.90;;;;;;;22.98;80.41;100597.67;1766924;80;21751;-58
2023/05/26 07:49:54;;;;;;;7.95;3.62;;;;;;;22.94;80.37;100593.70;1728677;82;21803;-58
2023/05/26 07:53:00;;;;;;;11.00;3.55;;;;;;;22.91;80.32;100592.23;1798126;79;21342;-57
2023/05/26 07:56:07;;;;;;;10.28;3.70;;;;;;;22.90;80.32;100593.89;1779541;79;21776;-57
2023/05/26 07:59:14;;;;;;;6.75;3.37;;;;;;;22.93;80.17;100589.23;1802915;79;21338;-58
2023/05/26 08:02:23;;;;;;;8.35;3.30;;;;;;;22.99;80.25;100591.01;1797496;78;21597;-58
2023/05/26 08:05:33;;;;;;;5.83;3.70;;;;;;;23.07;80.27;100597.00;1800846;78;21389;-59
2023/05/26 08:08:40;;;;;;;9.70;3.80;;;;;;;23.07;80.02;100594.22;1787759;79;21736;-60
2023/05/26 08:11:48;;;;;;;12.20;4.45;;;;;;;23.05;79.86;100584.41;1804149;79;21771;-58
2023/05/26 08:14:56;;;;;;;6.53;4.05;;;;;;;23.00;79.66;100581.52;1801730;79;21203;-58
2023/05/26 08:18:06;;;;;;;5.40;4.28;;;;;;;22.91;79.42;100583.86;1811765;78;21453;-59
2023/05/26 08:21:13;;;;;;;6.72;4.70;;;;;;;22.84;79.30;100587.92;1803503;79;21863;-56
2023/05/26 08:24:22;;;;;;;5.58;4.53;;;;;;;22.79;79.31;100590.61;1800547;77;21374;-57
2023/05/26 08:27:29;;;;;;;9.35;5.10;;;;;;;22.76;79.23;100581.34;1789510;79;21891;-61
2023/05/26 08:30:36;;;;;;;8.55;4.67;;;;;;;22.69;79.13;100578.70;1790866;78;21379;-60
2023/05/26 08:33:42;;;;;;;5.95;4.42;;;;;;;22.61;79.08;100578.27;1798018;79;21486;-59
2023/05/26 08:36:50;;;;;;;6.90;4.30;;;;;;;22.55;79.06;100574.52;1784609;79;21211;-60
2023/05/26 08:39:57;;;;;;;8.10;3.80;;;;;;;22.54;79.16;100574.23;1756330;80;21221;-59
2023/05/26 08:43:03;;;;;;;4.42;3.75;;;;;;;22.56;79.15;100577.62;1759665;80;21209;-59
2023/05/26 08:46:10;;;;;;;5.55;3.87;;;;;;;22.53;79.01;100582.32;1761329;79;21229;-60
2023/05/26 08:49:23;;;;;;;6.45;3.98;;;;;;;22.44;78.76;100573.98;1705626;81;21217;-57
2023/05/26 08:52:30;;;;;;;6.90;3.40;;;;;;;22.38;78.78;100568.55;1741088;82;21245;-58
2023/05/26 08:55:43;;;;;;;4.47;3.50;;;;;;;22.35;78.77;100565.72;1740141;81;21205;-57
2023/05/26 08:58:54;;;;;;;8.15;3.98;;;;;;;22.35;78.79;100562.94;1705595;82;21399;-58
2023/05/26 09:02:02;;;;;;;5.53;3.77;;;;;;;22.34;78.81;100560.39;1734731;81;21602;-63
2023/05/26 09:05:07;;;;;;;5.28;3.92;;;;;;;22.35;78.86;100564.86;1737213;82;22080;-63
2023/05/26 09:08:14;;;;;;;8.18;3.92;;;;;;;22.36;78.75;100559.61;1743074;81;21851;-61
2023/05/26 09:11:33;;;;;;;6.37;3.80;;;;;;;22.40;78.78;100551.88;1736054;82;21784;-66
2023/05/26 09:14:42;;;;;;;6.75;3.22;;;;;;;22.42;78.58;100550.23;1735810;82;21296;-63
2023/05/26 09:17:50;;;;;;;4.75;2.62;;;;;;;22.44;78.57;100558.64;1736582;82;21232;-62
2023/05/26 09:20:57;;;;;;;8.35;3.75;;;;;;;22.44;78.24;100566.19;1737007;82;21271;-62
2023/05/26 09:24:05;;;;;;;4.75;2.90;;;;;;;22.35;77.93;100560.14;1763442;80;21373;-62
2023/05/26 09:27:11;;;;;;;6.53;3.37;;;;;;;22.32;77.83;100559.78;1767023;81;21200;-63
2023/05/26 09:30:20;;;;;;;7.22;3.47;;;;;;;22.28;77.79;100553.02;1767591;80;21373;-62
2023/05/26 09:33:27;;;;;;;5.33;3.22;;;;;;;22.27;77.67;100553.56;1739992;81;21432;-60
2023/05/26 09:36:36;;;;;;;4.40;3.35;;;;;;;22.27;77.59;100551.30;1767459;81;21397;-61
2023/05/26 09:39:42;;;;;;;6.08;3.20;;;;;;;22.28;77.56;100543.26;1745132;79;21334;-57
2023/05/26 09:43:00;;;;;;;8.05;3.98;;;;;;;22.31;77.52;100548.34;1706467;83;21239;-59
2023/05/26 09:46:08;;;;;;;5.75;3.40;;;;;;;22.31;77.43;100563.11;1707223;82;21222;-59
2023/05/26 09:49:20;;;;;;;8.53;4.62;;;;;;;22.27;77.37;100581.98;1698603;84;21254;-58
2023/05/26 09:52:27;;;;;;;8.88;5.20;;;;;;;22.18;77.29;100587.95;1700990;82;21226;-58
2023/05/26 09:55:33;;;;;;;23.70;16.87;;;;;;;22.10;77.22;100588.33;1701666;84;21378;-57
2023/05/26 09:58:41;;;;;;;5.75;3.58;;;;;;;22.01;77.01;100587.03;1739583;81;21877;-56
2023/05/26 10:01:48;;;;;;;7.35;4.65;;;;;;;21.89;76.69;100588.14;1739080;81;21359;-57
2023/05/26 10:04:55;;;;;;;10.03;4.35;;;;;;;21.75;76.54;100586.17;1758498;80;21367;-58
2023/05/26 10:08:02;;;;;;;8.00;3.87;;;;;;;21.64;76.53;100584.74;1768034;80;21212;-58
2023/05/26 10:11:07;;;;;;;7.10;4.25;;;;;;;21.53;76.44;100582.81;1761902;79;21264;-57
2023/05/26 10:14:15;;;;;;;8.53;4.28;;;;;;;21.33;76.13;100583.15;1756394;79;21238;-58
2023/05/26 10:17:23;;;;;;;8.43;4.60;;;;;;;21.15;76.06;100587.98;1758869;79;21315;-59
2023/05/26 10:21:03;;;;;;;10.90;5.12;;;;;;;21.00;76.00;100582.00;1752930;79;21223;-57
2023/05/26 10:24:25;;;;;;;5.25;3.77;;;;;;;20.86;75.88;100578.56;1758557;79;21219;-57
2023/05/26 10:27:42;;;;;;;;;;;;;;;20.74;75.77;100571.55;1756774;79;21172;-57
2023/05/26 10:30:49;;;;;;;15.72;9.20;;;;;;;20.65;75.79;100567.95;1756988;79;20232;-56
2023/05/26 10:33:57;;;;;;;32.78;17.50;;;;;;;20.55;75.81;100560.74;1762677;79;21239;-58
2023/05/26 10:37:09;;;;;;;21.87;10.98;;;;;;;20.47;75.80;100565.25;1724219;81;21312;-58
2023/05/26 10:40:20;;;;;;;16.30;6.47;;;;;;;20.35;75.64;100553.20;1772721;78;21196;-56
2023/05/26 10:43:32;;;;;;;14.05;7.05;;;;;;;20.23;75.41;100552.31;1718887;81;21248;-58
2023/05/26 10:46:46;;;;;;;14.50;6.22;;;;;;;20.12;75.31;100555.84;1719551;81;21959;-57
2023/05/26 10:50:05;;;;;;;16.45;7.55;;;;;;;20.02;75.37;100567.52;1719079;82;21285;-57
2023/05/26 10:53:11;;;;;;;11.45;7.00;;;;;;;19.93;75.38;100570.84;1713900;81;21218;-56
2023/05/26 10:56:25;;;;;;;17.82;6.40;;;;;;;19.82;75.26;100564.11;1688527;83;21255;-58
2023/05/26 10:59:43;;;;;;;14.00;5.75;;;;;;;19.75;75.22;100558.32;1723055;81;21782;-57
2023/05/26 11:02:50;;;;;;;9.53;5.75;;;;;;;19.66;75.29;100548.08;1725447;82;21750;-57
2023/05/26 11:06:04;;;;;;;10.10;5.20;;;;;;;19.62;75.46;100542.66;1709704;83;21825;-57
2023/05/26 11:09:14;;;;;;;12.55;5.75;;;;;;;19.59;75.65;100543.65;1768673;79;21370;-58
2023/05/26 11:12:22;;;;;;;12.60;7.08;;;;;;;19.55;75.86;100539.09;1774119;79;21200;-56
2023/05/26 11:15:40;;;;;;;12.00;6.15;;;;;;;19.52;75.93;100538.72;1769848;80;21883;-57
2023/05/26 11:18:49;;;;;;;14.28;7.30;;;;;;;19.49;76.02;100551.12;1753485;79;21342;-56
2023/05/26 11:21:55;;;;;;;15.48;7.72;;;;;;;19.47;76.05;100560.77;1805131;78;21955;-58
2023/05/26 11:25:03;;;;;;;13.22;7.50;;;;;;;19.44;76.08;100577.33;1788817;78;21875;-58
2023/05/26 11:28:09;;;;;;;11.73;6.45;;;;;;;19.43;76.21;100587.28;1787851;79;21428;-58
2023/05/26 11:31:18;;;;;;;12.65;7.25;;;;;;;19.41;76.30;100590.84;1774388;79;21354;-58
2023/05/26 11:34:24;;;;;;;9.43;5.75;;;;;;;19.39;76.41;100592.47;1776319;78;21342;-59
2023/05/26 11:37:19;;;;;;;10.80;5.15;;;;;;;19.38;76.55;100592.70;1792269;80;21764;-58
2023/05/26 11:40:28;;;;;;;7.92;4.75;;;;;;;19.36;76.73;100592.06;1788516;79;21416;-60
2023/05/26 11:43:33;;;;;;;9.55;4.85;;;;;;;19.36;76.88;100594.84;1798833;78;21966;-59
2023/05/26 11:46:42;;;;;;;15.85;7.53;;;;;;;19.37;76.91;100600.70;1794388;79;21761;-60
2023/05/26 11:49:53;;;;;;;9.40;4.97;;;;;;;19.36;76.87;100594.28;1785828;78;21918;-61
2023/05/26 11:53:01;;;;;;;11.90;5.20;;;;;;;19.36;76.85;100592.89;1803419;79;21355;-58
2023/05/26 11:56:18;;;;;;;10.50;5.78;;;;;;;19.33;76.87;100584.50;1788637;79;21203;-56
2023/05/26 11:59:26;;;;;;;8.00;5.00;;;;;;;19.33;76.94;100570.61;1803567;78;21855;-57
2023/05/26 12:02:31;;;;;;;9.63;5.03;;;;;;;19.34;77.04;100568.14;1788655;78;21192;-60
2023/05/26 12:05:38;;;;;;;9.78;5.15;;;;;;;19.37;77.17;100571.02;1788395;79;21184;-57
2023/05/26 12:09:07;;;;;;;10.05;5.67;;;;;;;19.38;77.23;100557.98;1797983;78;21180;-58
2023/05/26 12:12:16;;;;;;;10.88;6.55;;;;;;;19.40;77.28;100553.89;1771722;79;21724;-57
2023/05/26 12:15:28;;;;;;;11.08;5.60;;;;;;;19.42;77.07;100561.99;1777359;79;21231;-57
2023/05/26 12:18:34;;;;;;;10.88;6.42;;;;;;;19.40;77.06;100559.45;1774786;79;21354;-61
2023/05/26 12:21:53;;;;;;;17.05;9.93;;;;;;;19.39;76.96;100559.15;1802868;79;21358;-57
2023/05/26 12:25:00;;;;;;;10.82;6.80;;;;;;;19.37;76.87;100552.97;1793590;78;21883;-59
2023/05/26 12:28:06;;;;;;;10.35;5.58;;;;;;;19.38;77.03;100551.05;1777499;79;21207;-58
2023/05/26 12:31:12;;;;;;;10.03;5.95;;;;;;;19.40;77.07;100552.51;1795676;79;21722;-58
2023/05/26 12:34:25;;;;;;;12.47;6.80;;;;;;;19.44;77.17;100552.34;1791628;78;21197;-60
2023/05/26 12:37:32;;;;;;;10.45;5.80;;;;;;;19.45;77.29;100539.31;1707680;82;21237;-57
2023/05/26 12:40:38;;;;;;;6.45;4.35;;;;;;;19.47;77.22;100535.78;1793109;78;21560;-60
2023/05/26 12:43:42;;;;;;;7.60;4.33;;;;;;;19.45;77.18;100534.63;1765079;76;21214;-57
2023/05/26 12:46:50;;;;;;;8.85;4.87;;;;;;;19.44;77.20;100534.86;1734279;81;21783;-58
2023/05/26 12:49:55;;;;;;;7.17;4.30;;;;;;;19.45;77.31;100521.27;1742620;80;21403;-58
2023/05/26 12:53:02;;;;;;;8.10;5.12;;;;;;;19.50;77.41;100530.62;1750907;81;21204;-58
2023/05/26 12:56:07;;;;;;;8.30;5.33;;;;;;;19.56;77.54;100528.84;1725802;81;21233;-59
2023/05/26 12:59:15;;;;;;;12.75;5.20;;;;;;;19.65;77.72;100530.22;1758542;80;21810;-56
2023/05/26 13:02:21;;;;;;;12.40;5.62;;;;;;;19.76;77.88;100540.03;1749873;80;21199;-55
2023/05/26 13:05:27;;;;;;;7.12;5.20;;;;;;;19.89;78.03;100534.85;1743423;81;21327;-57
2023/05/26 13:08:34;;;;;;;13.58;7.42;;;;;;;20.03;78.08;100544.72;1743086;80;21758;-58
2023/05/26 13:11:42;;;;;;;12.25;7.45;;;;;;;20.15;78.14;100556.80;1725032;83;21250;-54
2023/05/26 13:14:48;;;;;;;7.70;6.30;;;;;;;20.24;78.22;100550.69;1726005;81;21920;-55
2023/05/26 13:17:54;;;;;;;8.98;5.83;;;;;;;20.37;78.43;100565.80;1725032;83;21645;-56
2023/05/26 13:21:01;;;;;;;9.83;5.62;;;;;;;20.51;78.48;100560.89;1726637;81;21407;-56
2023/05/26 13:24:07;;;;;;;8.30;5.05;;;;;;;20.61;78.46;100557.01;1734898;81;21732;-56
2023/05/26 13:27:14;;;;;;;10.03;5.65;;;;;;;20.70;78.47;100543.91;1726973;81;21908;-57
2023/05/26 13:30:21;;;;;;;10.95;5.55;;;;;;;20.84;78.56;100547.32;1727248;81;21874;-59
2023/05/26 13:33:27;;;;;;;7.58;5.75;;;;;;;21.01;78.58;100535.83;1727438;82;21352;-58
2023/05/26 13:36:34;;;;;;;8.60;5.58;;;;;;;21.21;78.59;100532.70;1732020;81;21883;-57
2023/05/26 13:39:41;;;;;;;10.63;4.90;;;;;;;21.43;78.61;100525.45;1753047;81;21202;-57
2023/05/26 13:42:49;;;;;;;7.83;5.20;;;;;;;21.62;78.48;100508.89;1754759;81;21203;-55
2023/05/26 13:45:55;;;;;;;7.53;4.62;;;;;;;21.81;78.34;100510.47;1767813;79;21700;-59
2023/05/26 13:49:04;;;;;;;8.03;4.00;;;;;;;22.05;78.34;100504.59;1767594;81;21166;-56
2023/05/26 13:52:09;;;;;;;7.35;3.80;;;;;;;22.31;78.22;100496.73;1768373;81;21195;-57
2023/05/26 13:55:15;;;;;;;6.10;3.40;;;;;;;22.54;78.05;100493.84;1739469;79;21218;-56
2023/05/26 13:58:22;;;;;;;4.40;2.92;;;;;;;22.78;77.97;100478.11;1737782;79;21180;-57
2023/05/26 14:01:27;;;;;;;5.37;2.92;;;;;;;22.93;77.57;100485.34;1735734;81;21203;-57
2023/05/26 14:04:35;;;;;;;4.85;2.72;;;;;;;22.99;77.03;100482.09;1737817;80;21592;-58
2023/05/26 14:07:43;;;;;;;7.35;2.87;;;;;;;23.11;77.00;100485.09;1740593;82;21355;-56
2023/05/26 14:10:48;;;;;;;3.37;2.83;;;;;;;23.26;76.84;100484.52;1739209;81;21346;-58
2023/05/26 14:13:56;;;;;;;5.78;2.95;;;;;;;23.41;76.81;100483.34;1740294;81;21201;-59
2023/05/26 14:17:02;;;;;;;5.80;3.10;;;;;;;23.52;76.47;100489.38;1739741;82;21919;-58
2023/05/26 14:20:08;;;;;;;6.20;2.75;;;;;;;23.67;76.14;100484.01;1739561;81;21390;-58
2023/05/26 14:23:16;;;;;;;3.27;2.67;;;;;;;23.80;75.97;100479.98;1738420;82;21277;-59
2023/05/26 14:26:22;;;;;;;4.05;2.92;;;;;;;23.92;75.82;100489.08;1761263;81;21192;-59
2023/05/26 14:29:30;;;;;;;3.60;2.85;;;;;;;23.92;75.54;100502.52;1766595;79;21254;-58